sensor_id;sensor_type;location;lat;lon;timestamp;P1;durP1;ratioP1;P2;durP2;ratioP2
34828;SDS011;21042;47.620;12.188;2024-01-07T00:00:55;5.68;;;2.95;;
34828;SDS011;21042;47.620;12.188;2024-01-07T00:03:22;4.70;;;3.03;;
34828;SDS011;21042;47.620;12.188;2024-01-07T00:05:49;4.38;;;2.80;;
34828;SDS011;21042;47.620;12.188;2024-01-07T00:08:16;5.60;;;3.47;;
34828;SDS011;21042;47.620;12.188;2024-01-07T00:10:42;9.32;;;3.42;;
34828;SDS011;21042;47.620;12.188;2024-01-07T00:13:09;7.88;;;3.22;;
34828;SDS011;21042;47.620;12.188;2024-01-07T00:15:36;11.13;;;4.82;;
34828;SDS011;21042;47.620;12.188;2024-01-07T00:18:03;19.15;;;6.65;;
34828;SDS011;21042;47.620;12.188;2024-01-07T00:20:30;22.20;;;8.52;;
34828;SDS011;21042;47.620;12.188;2024-01-07T00:22:57;20.40;;;9.05;;
34828;SDS011;21042;47.620;12.188;2024-01-07T00:25:23;16.25;;;7.13;;
34828;SDS011;21042;47.620;12.188;2024-01-07T00:27:50;14.00;;;5.82;;
34828;SDS011;21042;47.620;12.188;2024-01-07T00:30:18;9.88;;;5.05;;
34828;SDS011;21042;47.620;12.188;2024-01-07T00:32:45;8.80;;;4.93;;
34828;SDS011;21042;47.620;12.188;2024-01-07T00:35:12;7.82;;;4.50;;
34828;SDS011;21042;47.620;12.188;2024-01-07T00:37:39;7.18;;;4.47;;
34828;SDS011;21042;47.620;12.188;2024-01-07T00:40:06;6.15;;;4.00;;
34828;SDS011;21042;47.620;12.188;2024-01-07T00:42:34;7.95;;;4.35;;
34828;SDS011;21042;47.620;12.188;2024-01-07T00:45:00;8.25;;;3.92;;
34828;SDS011;21042;47.620;12.188;2024-01-07T00:47:27;13.15;;;6.30;;
34828;SDS011;21042;47.620;12.188;2024-01-07T00:49:54;19.38;;;8.60;;
34828;SDS011;21042;47.620;12.188;2024-01-07T00:52:21;21.00;;;8.00;;
34828;SDS011;21042;47.620;12.188;2024-01-07T00:54:49;36.15;;;12.73;;
34828;SDS011;21042;47.620;12.188;2024-01-07T00:57:17;22.45;;;9.70;;
34828;SDS011;21042;47.620;12.188;2024-01-07T00:59:44;11.23;;;5.65;;
34828;SDS011;21042;47.620;12.188;2024-01-07T01:02:11;11.13;;;5.32;;
34828;SDS011;21042;47.620;12.188;2024-01-07T01:04:38;11.27;;;5.85;;
34828;SDS011;21042;47.620;12.188;2024-01-07T01:07:06;10.43;;;5.60;;
34828;SDS011;21042;47.620;12.188;2024-01-07T01:09:34;10.32;;;5.10;;
34828;SDS011;21042;47.620;12.188;2024-01-07T01:12:01;8.90;;;4.85;;
34828;SDS011;21042;47.620;12.188;2024-01-07T01:14:27;10.55;;;6.25;;
34828;SDS011;21042;47.620;12.188;2024-01-07T01:16:54;9.75;;;5.78;;
34828;SDS011;21042;47.620;12.188;2024-01-07T01:19:21;9.20;;;4.53;;
34828;SDS011;21042;47.620;12.188;2024-01-07T01:21:48;13.60;;;6.75;;
34828;SDS011;21042;47.620;12.188;2024-01-07T01:24:15;14.30;;;7.03;;
34828;SDS011;21042;47.620;12.188;2024-01-07T01:26:42;14.07;;;7.10;;
34828;SDS011;21042;47.620;12.188;2024-01-07T01:29:09;15.25;;;6.40;;
34828;SDS011;21042;47.620;12.188;2024-01-07T01:31:35;12.27;;;6.38;;
34828;SDS011;21042;47.620;12.188;2024-01-07T01:34:03;10.13;;;5.50;;
34828;SDS011;21042;47.620;12.188;2024-01-07T01:36:33;10.90;;;6.55;;
34828;SDS011;21042;47.620;12.188;2024-01-07T01:39:00;11.57;;;6.30;;
34828;SDS011;21042;47.620;12.188;2024-01-07T01:41:27;11.25;;;5.85;;
34828;SDS011;21042;47.620;12.188;2024-01-07T01:43:57;12.05;;;6.10;;
34828;SDS011;21042;47.620;12.188;2024-01-07T01:46:25;11.13;;;5.95;;
34828;SDS011;21042;47.620;12.188;2024-01-07T01:51:19;8.93;;;4.85;;
34828;SDS011;21042;47.620;12.188;2024-01-07T01:53:46;10.48;;;5.43;;
34828;SDS011;21042;47.620;12.188;2024-01-07T01:56:16;9.45;;;6.07;;
34828;SDS011;21042;47.620;12.188;2024-01-07T01:58:44;11.80;;;5.93;;
34828;SDS011;21042;47.620;12.188;2024-01-07T02:01:11;10.30;;;5.38;;
34828;SDS011;21042;47.620;12.188;2024-01-07T02:03:39;9.73;;;5.20;;
34828;SDS011;21042;47.620;12.188;2024-01-07T02:06:06;8.68;;;4.97;;
34828;SDS011;21042;47.620;12.188;2024-01-07T02:08:33;10.10;;;5.05;;
34828;SDS011;21042;47.620;12.188;2024-01-07T02:11:13;8.35;;;5.03;;
34828;SDS011;21042;47.620;12.188;2024-01-07T02:13:44;10.60;;;5.57;;
34828;SDS011;21042;47.620;12.188;2024-01-07T02:16:11;9.23;;;5.47;;
34828;SDS011;21042;47.620;12.188;2024-01-07T02:18:42;11.35;;;5.53;;
34828;SDS011;21042;47.620;12.188;2024-01-07T02:21:11;8.65;;;5.03;;
34828;SDS011;21042;47.620;12.188;2024-01-07T02:23:40;13.30;;;6.70;;
34828;SDS011;21042;47.620;12.188;2024-01-07T02:26:07;12.00;;;6.07;;
34828;SDS011;21042;47.620;12.188;2024-01-07T02:28:33;12.27;;;6.40;;
34828;SDS011;21042;47.620;12.188;2024-01-07T02:31:00;11.10;;;6.22;;
34828;SDS011;21042;47.620;12.188;2024-01-07T02:33:27;10.88;;;5.65;;
34828;SDS011;21042;47.620;12.188;2024-01-07T02:35:55;13.32;;;6.20;;
34828;SDS011;21042;47.620;12.188;2024-01-07T02:38:22;11.77;;;5.97;;
34828;SDS011;21042;47.620;12.188;2024-01-07T02:40:49;9.88;;;4.90;;
34828;SDS011;21042;47.620;12.188;2024-01-07T02:43:16;8.15;;;4.45;;
34828;SDS011;21042;47.620;12.188;2024-01-07T02:45:43;9.80;;;4.78;;
34828;SDS011;21042;47.620;12.188;2024-01-07T02:48:10;9.25;;;5.28;;
34828;SDS011;21042;47.620;12.188;2024-01-07T02:50:37;9.65;;;5.10;;
34828;SDS011;21042;47.620;12.188;2024-01-07T02:53:03;6.00;;;3.47;;
34828;SDS011;21042;47.620;12.188;2024-01-07T02:55:30;7.50;;;4.07;;
34828;SDS011;21042;47.620;12.188;2024-01-07T02:57:57;8.45;;;4.55;;
34828;SDS011;21042;47.620;12.188;2024-01-07T03:00:24;8.52;;;4.80;;
34828;SDS011;21042;47.620;12.188;2024-01-07T03:02:51;8.65;;;4.28;;
34828;SDS011;21042;47.620;12.188;2024-01-07T03:09:18;13.18;;;4.78;;
34828;SDS011;21042;47.620;12.188;2024-01-07T03:11:45;10.98;;;5.05;;
34828;SDS011;21042;47.620;12.188;2024-01-07T03:14:12;6.45;;;3.50;;
34828;SDS011;21042;47.620;12.188;2024-01-07T03:16:39;8.95;;;4.30;;
34828;SDS011;21042;47.620;12.188;2024-01-07T03:19:06;8.90;;;4.82;;
34828;SDS011;21042;47.620;12.188;2024-01-07T03:21:33;8.50;;;4.95;;
34828;SDS011;21042;47.620;12.188;2024-01-07T03:24:00;9.45;;;4.95;;
34828;SDS011;21042;47.620;12.188;2024-01-07T03:26:28;11.20;;;5.28;;
34828;SDS011;21042;47.620;12.188;2024-01-07T03:28:56;8.75;;;4.60;;
34828;SDS011;21042;47.620;12.188;2024-01-07T03:31:26;6.97;;;4.32;;
34828;SDS011;21042;47.620;12.188;2024-01-07T03:33:53;8.60;;;5.00;;
34828;SDS011;21042;47.620;12.188;2024-01-07T03:36:20;8.45;;;4.50;;
34828;SDS011;21042;47.620;12.188;2024-01-07T03:38:47;8.73;;;5.07;;
34828;SDS011;21042;47.620;12.188;2024-01-07T03:41:17;10.63;;;5.00;;
34828;SDS011;21042;47.620;12.188;2024-01-07T03:43:48;9.10;;;4.78;;
34828;SDS011;21042;47.620;12.188;2024-01-07T03:46:16;9.80;;;5.00;;
34828;SDS011;21042;47.620;12.188;2024-01-07T03:48:43;8.95;;;4.88;;
34828;SDS011;21042;47.620;12.188;2024-01-07T03:51:10;7.57;;;4.40;;
34828;SDS011;21042;47.620;12.188;2024-01-07T03:53:37;8.27;;;4.97;;
34828;SDS011;21042;47.620;12.188;2024-01-07T03:56:04;6.78;;;3.58;;
34828;SDS011;21042;47.620;12.188;2024-01-07T03:58:32;9.40;;;4.57;;
34828;SDS011;21042;47.620;12.188;2024-01-07T04:00:58;8.77;;;4.45;;
34828;SDS011;21042;47.620;12.188;2024-01-07T04:03:25;7.15;;;4.65;;
34828;SDS011;21042;47.620;12.188;2024-01-07T04:05:52;7.85;;;4.50;;
34828;SDS011;21042;47.620;12.188;2024-01-07T04:08:19;7.70;;;4.05;;
34828;SDS011;21042;47.620;12.188;2024-01-07T04:10:46;8.60;;;4.45;;
34828;SDS011;21042;47.620;12.188;2024-01-07T04:13:13;7.47;;;3.92;;
34828;SDS011;21042;47.620;12.188;2024-01-07T04:15:39;8.40;;;4.63;;
34828;SDS011;21042;47.620;12.188;2024-01-07T04:18:06;8.27;;;4.63;;
34828;SDS011;21042;47.620;12.188;2024-01-07T04:20:33;6.15;;;3.58;;
34828;SDS011;21042;47.620;12.188;2024-01-07T04:23:00;7.78;;;4.32;;
34828;SDS011;21042;47.620;12.188;2024-01-07T04:25:27;5.43;;;3.28;;
34828;SDS011;21042;47.620;12.188;2024-01-07T04:27:54;8.90;;;4.10;;
34828;SDS011;21042;47.620;12.188;2024-01-07T04:30:20;6.32;;;3.75;;
34828;SDS011;21042;47.620;12.188;2024-01-07T04:32:47;7.68;;;4.45;;
34828;SDS011;21042;47.620;12.188;2024-01-07T04:35:14;6.00;;;3.58;;
34828;SDS011;21042;47.620;12.188;2024-01-07T04:37:41;8.15;;;4.63;;
34828;SDS011;21042;47.620;12.188;2024-01-07T04:40:08;8.05;;;4.68;;
34828;SDS011;21042;47.620;12.188;2024-01-07T04:42:36;8.18;;;4.22;;
34828;SDS011;21042;47.620;12.188;2024-01-07T04:45:03;9.50;;;4.63;;
34828;SDS011;21042;47.620;12.188;2024-01-07T04:47:31;11.18;;;5.47;;
34828;SDS011;21042;47.620;12.188;2024-01-07T04:50:02;9.00;;;4.90;;
34828;SDS011;21042;47.620;12.188;2024-01-07T04:52:30;11.73;;;5.40;;
34828;SDS011;21042;47.620;12.188;2024-01-07T04:54:56;9.88;;;5.35;;
34828;SDS011;21042;47.620;12.188;2024-01-07T04:57:23;12.23;;;5.05;;
34828;SDS011;21042;47.620;12.188;2024-01-07T04:59:50;11.55;;;6.05;;
34828;SDS011;21042;47.620;12.188;2024-01-07T05:02:18;11.65;;;5.80;;
34828;SDS011;21042;47.620;12.188;2024-01-07T05:04:45;13.40;;;4.97;;
34828;SDS011;21042;47.620;12.188;2024-01-07T05:07:12;9.13;;;4.88;;
34828;SDS011;21042;47.620;12.188;2024-01-07T05:09:39;8.60;;;4.65;;
34828;SDS011;21042;47.620;12.188;2024-01-07T05:12:06;7.97;;;4.63;;
34828;SDS011;21042;47.620;12.188;2024-01-07T05:14:33;7.57;;;4.03;;
34828;SDS011;21042;47.620;12.188;2024-01-07T05:17:00;8.32;;;4.05;;
34828;SDS011;21042;47.620;12.188;2024-01-07T05:19:26;6.63;;;4.18;;
34828;SDS011;21042;47.620;12.188;2024-01-07T05:21:53;8.40;;;4.65;;
34828;SDS011;21042;47.620;12.188;2024-01-07T05:24:20;8.35;;;4.55;;
34828;SDS011;21042;47.620;12.188;2024-01-07T05:26:47;9.60;;;5.53;;
34828;SDS011;21042;47.620;12.188;2024-01-07T05:29:14;7.80;;;4.70;;
34828;SDS011;21042;47.620;12.188;2024-01-07T05:31:41;5.47;;;3.00;;
34828;SDS011;21042;47.620;12.188;2024-01-07T05:34:08;9.00;;;4.47;;
34828;SDS011;21042;47.620;12.188;2024-01-07T05:36:35;7.43;;;3.95;;
34828;SDS011;21042;47.620;12.188;2024-01-07T05:39:02;8.55;;;4.22;;
34828;SDS011;21042;47.620;12.188;2024-01-07T05:41:29;9.93;;;4.10;;
34828;SDS011;21042;47.620;12.188;2024-01-07T05:43:56;8.45;;;4.45;;
34828;SDS011;21042;47.620;12.188;2024-01-07T05:46:22;6.85;;;4.22;;
34828;SDS011;21042;47.620;12.188;2024-01-07T05:48:50;7.15;;;4.32;;
34828;SDS011;21042;47.620;12.188;2024-01-07T05:51:17;7.22;;;4.47;;
34828;SDS011;21042;47.620;12.188;2024-01-07T05:53:44;14.02;;;5.43;;
34828;SDS011;21042;47.620;12.188;2024-01-07T05:56:12;45.25;;;7.85;;
34828;SDS011;21042;47.620;12.188;2024-01-07T05:58:39;17.83;;;5.93;;
34828;SDS011;21042;47.620;12.188;2024-01-07T06:01:06;28.05;;;6.45;;
34828;SDS011;21042;47.620;12.188;2024-01-07T06:03:35;21.10;;;5.32;;
34828;SDS011;21042;47.620;12.188;2024-01-07T06:08:29;11.50;;;5.20;;
34828;SDS011;21042;47.620;12.188;2024-01-07T06:10:56;6.57;;;3.53;;
34828;SDS011;21042;47.620;12.188;2024-01-07T06:13:23;11.23;;;5.25;;
34828;SDS011;21042;47.620;12.188;2024-01-07T06:15:50;8.52;;;4.68;;
34828;SDS011;21042;47.620;12.188;2024-01-07T06:18:17;7.40;;;4.28;;
34828;SDS011;21042;47.620;12.188;2024-01-07T06:20:44;7.88;;;4.53;;
34828;SDS011;21042;47.620;12.188;2024-01-07T06:23:10;7.78;;;4.78;;
34828;SDS011;21042;47.620;12.188;2024-01-07T06:25:37;9.25;;;4.95;;
34828;SDS011;21042;47.620;12.188;2024-01-07T06:28:05;8.05;;;4.90;;
34828;SDS011;21042;47.620;12.188;2024-01-07T06:33:00;10.07;;;5.60;;
34828;SDS011;21042;47.620;12.188;2024-01-07T06:35:27;8.85;;;5.38;;
34828;SDS011;21042;47.620;12.188;2024-01-07T06:37:54;9.93;;;5.47;;
34828;SDS011;21042;47.620;12.188;2024-01-07T06:40:21;8.45;;;4.88;;
34828;SDS011;21042;47.620;12.188;2024-01-07T06:42:49;9.60;;;5.75;;
34828;SDS011;21042;47.620;12.188;2024-01-07T06:45:16;9.60;;;5.25;;
34828;SDS011;21042;47.620;12.188;2024-01-07T06:47:43;9.32;;;5.57;;
34828;SDS011;21042;47.620;12.188;2024-01-07T06:50:10;11.40;;;6.22;;
34828;SDS011;21042;47.620;12.188;2024-01-07T06:52:37;9.88;;;5.57;;
34828;SDS011;21042;47.620;12.188;2024-01-07T06:55:04;7.70;;;4.60;;
34828;SDS011;21042;47.620;12.188;2024-01-07T06:59:58;9.43;;;5.78;;
34828;SDS011;21042;47.620;12.188;2024-01-07T07:02:25;8.65;;;5.28;;
34828;SDS011;21042;47.620;12.188;2024-01-07T07:04:51;9.90;;;5.70;;
34828;SDS011;21042;47.620;12.188;2024-01-07T07:07:18;9.23;;;5.78;;
34828;SDS011;21042;47.620;12.188;2024-01-07T07:09:45;10.63;;;5.55;;
34828;SDS011;21042;47.620;12.188;2024-01-07T07:14:39;6.85;;;4.57;;
34828;SDS011;21042;47.620;12.188;2024-01-07T07:17:06;7.60;;;4.78;;
34828;SDS011;21042;47.620;12.188;2024-01-07T07:19:33;12.35;;;5.00;;
34828;SDS011;21042;47.620;12.188;2024-01-07T07:22:00;10.18;;;4.97;;
34828;SDS011;21042;47.620;12.188;2024-01-07T07:24:27;8.45;;;5.18;;
34828;SDS011;21042;47.620;12.188;2024-01-07T07:26:53;11.20;;;4.68;;
34828;SDS011;21042;47.620;12.188;2024-01-07T07:29:20;7.68;;;4.63;;
34828;SDS011;21042;47.620;12.188;2024-01-07T07:31:47;5.90;;;3.65;;
34828;SDS011;21042;47.620;12.188;2024-01-07T07:34:15;9.13;;;4.90;;
34828;SDS011;21042;47.620;12.188;2024-01-07T07:36:42;15.73;;;5.15;;
34828;SDS011;21042;47.620;12.188;2024-01-07T07:39:11;9.15;;;4.72;;
34828;SDS011;21042;47.620;12.188;2024-01-07T07:41:39;6.50;;;4.28;;
34828;SDS011;21042;47.620;12.188;2024-01-07T07:44:07;7.00;;;4.70;;
34828;SDS011;21042;47.620;12.188;2024-01-07T07:46:34;6.70;;;4.32;;
34828;SDS011;21042;47.620;12.188;2024-01-07T07:49:00;6.07;;;4.10;;
34828;SDS011;21042;47.620;12.188;2024-01-07T07:53:54;5.65;;;4.13;;
34828;SDS011;21042;47.620;12.188;2024-01-07T07:56:21;8.10;;;4.90;;
34828;SDS011;21042;47.620;12.188;2024-01-07T07:58:48;6.68;;;4.43;;
34828;SDS011;21042;47.620;12.188;2024-01-07T08:01:16;6.03;;;3.80;;
34828;SDS011;21042;47.620;12.188;2024-01-07T08:03:44;9.02;;;4.47;;
34828;SDS011;21042;47.620;12.188;2024-01-07T08:06:11;8.90;;;4.55;;
34828;SDS011;21042;47.620;12.188;2024-01-07T08:08:38;6.40;;;4.35;;
34828;SDS011;21042;47.620;12.188;2024-01-07T08:11:05;8.80;;;4.72;;
34828;SDS011;21042;47.620;12.188;2024-01-07T08:13:35;8.75;;;4.45;;
34828;SDS011;21042;47.620;12.188;2024-01-07T08:16:03;7.38;;;4.28;;
34828;SDS011;21042;47.620;12.188;2024-01-07T08:18:31;9.77;;;4.68;;
34828;SDS011;21042;47.620;12.188;2024-01-07T08:20:59;6.18;;;3.95;;
34828;SDS011;21042;47.620;12.188;2024-01-07T08:23:26;8.80;;;4.07;;
34828;SDS011;21042;47.620;12.188;2024-01-07T08:25:53;6.75;;;3.75;;
34828;SDS011;21042;47.620;12.188;2024-01-07T08:28:20;8.57;;;4.32;;
34828;SDS011;21042;47.620;12.188;2024-01-07T08:30:47;6.00;;;4.07;;
34828;SDS011;21042;47.620;12.188;2024-01-07T08:33:16;9.35;;;3.80;;
34828;SDS011;21042;47.620;12.188;2024-01-07T08:35:43;6.80;;;3.95;;
34828;SDS011;21042;47.620;12.188;2024-01-07T08:38:10;5.82;;;3.83;;
34828;SDS011;21042;47.620;12.188;2024-01-07T08:40:37;7.10;;;4.05;;
34828;SDS011;21042;47.620;12.188;2024-01-07T08:43:03;5.28;;;3.72;;
34828;SDS011;21042;47.620;12.188;2024-01-07T08:45:30;6.93;;;4.35;;
34828;SDS011;21042;47.620;12.188;2024-01-07T08:47:57;5.65;;;3.78;;
34828;SDS011;21042;47.620;12.188;2024-01-07T08:50:25;6.40;;;3.95;;
34828;SDS011;21042;47.620;12.188;2024-01-07T08:52:51;5.22;;;3.67;;
34828;SDS011;21042;47.620;12.188;2024-01-07T08:55:18;6.72;;;4.22;;
34828;SDS011;21042;47.620;12.188;2024-01-07T08:57:45;47.70;;;6.15;;
34828;SDS011;21042;47.620;12.188;2024-01-07T09:00:15;7.15;;;4.20;;
34828;SDS011;21042;47.620;12.188;2024-01-07T09:02:42;6.15;;;4.30;;
34828;SDS011;21042;47.620;12.188;2024-01-07T09:05:10;8.88;;;3.78;;
34828;SDS011;21042;47.620;12.188;2024-01-07T09:07:39;11.52;;;4.05;;
34828;SDS011;21042;47.620;12.188;2024-01-07T09:10:05;7.75;;;4.15;;
34828;SDS011;21042;47.620;12.188;2024-01-07T09:12:37;7.85;;;4.18;;
34828;SDS011;21042;47.620;12.188;2024-01-07T09:15:04;8.23;;;4.18;;
34828;SDS011;21042;47.620;12.188;2024-01-07T09:17:37;6.55;;;4.35;;
34828;SDS011;21042;47.620;12.188;2024-01-07T09:20:05;7.40;;;4.30;;
34828;SDS011;21042;47.620;12.188;2024-01-07T09:22:35;10.45;;;4.65;;
34828;SDS011;21042;47.620;12.188;2024-01-07T09:25:02;8.30;;;4.10;;
34828;SDS011;21042;47.620;12.188;2024-01-07T09:27:30;8.75;;;4.47;;
34828;SDS011;21042;47.620;12.188;2024-01-07T09:29:57;6.25;;;4.03;;
34828;SDS011;21042;47.620;12.188;2024-01-07T09:32:24;5.70;;;4.15;;
34828;SDS011;21042;47.620;12.188;2024-01-07T09:34:51;5.93;;;3.85;;
34828;SDS011;21042;47.620;12.188;2024-01-07T09:37:19;9.75;;;5.13;;
34828;SDS011;21042;47.620;12.188;2024-01-07T09:39:46;14.98;;;4.88;;
34828;SDS011;21042;47.620;12.188;2024-01-07T09:42:14;10.90;;;5.38;;
34828;SDS011;21042;47.620;12.188;2024-01-07T09:44:42;8.20;;;5.10;;
34828;SDS011;21042;47.620;12.188;2024-01-07T09:47:10;10.07;;;4.90;;
34828;SDS011;21042;47.620;12.188;2024-01-07T09:49:38;8.90;;;4.20;;
34828;SDS011;21042;47.620;12.188;2024-01-07T09:52:06;7.18;;;4.22;;
34828;SDS011;21042;47.620;12.188;2024-01-07T09:54:35;6.82;;;3.53;;
34828;SDS011;21042;47.620;12.188;2024-01-07T09:57:05;6.18;;;3.42;;
34828;SDS011;21042;47.620;12.188;2024-01-07T09:59:36;5.45;;;3.17;;
34828;SDS011;21042;47.620;12.188;2024-01-07T10:02:03;7.45;;;3.97;;
34828;SDS011;21042;47.620;12.188;2024-01-07T10:04:31;5.68;;;3.08;;
34828;SDS011;21042;47.620;12.188;2024-01-07T10:09:28;5.07;;;3.20;;
34828;SDS011;21042;47.620;12.188;2024-01-07T10:11:56;9.38;;;3.50;;
34828;SDS011;21042;47.620;12.188;2024-01-07T10:14:23;8.18;;;3.50;;
34828;SDS011;21042;47.620;12.188;2024-01-07T10:16:52;6.78;;;4.10;;
34828;SDS011;21042;47.620;12.188;2024-01-07T10:19:20;5.15;;;3.10;;
34828;SDS011;21042;47.620;12.188;2024-01-07T10:22:04;6.60;;;3.33;;
34828;SDS011;21042;47.620;12.188;2024-01-07T10:24:38;7.50;;;3.25;;
34828;SDS011;21042;47.620;12.188;2024-01-07T10:27:08;8.18;;;3.70;;
34828;SDS011;21042;47.620;12.188;2024-01-07T10:29:36;7.47;;;3.65;;
34828;SDS011;21042;47.620;12.188;2024-01-07T10:32:03;6.95;;;3.40;;
34828;SDS011;21042;47.620;12.188;2024-01-07T10:34:32;6.32;;;3.28;;
34828;SDS011;21042;47.620;12.188;2024-01-07T10:37:00;5.65;;;3.40;;
34828;SDS011;21042;47.620;12.188;2024-01-07T10:39:29;5.65;;;3.28;;
34828;SDS011;21042;47.620;12.188;2024-01-07T10:41:56;4.95;;;2.92;;
34828;SDS011;21042;47.620;12.188;2024-01-07T10:46:55;5.10;;;3.25;;
34828;SDS011;21042;47.620;12.188;2024-01-07T10:52:06;5.80;;;3.47;;
34828;SDS011;21042;47.620;12.188;2024-01-07T10:54:35;6.85;;;3.72;;
34828;SDS011;21042;47.620;12.188;2024-01-07T10:57:29;6.43;;;3.60;;
34828;SDS011;21042;47.620;12.188;2024-01-07T11:00:02;6.13;;;2.97;;
34828;SDS011;21042;47.620;12.188;2024-01-07T11:02:44;4.43;;;3.03;;
34828;SDS011;21042;47.620;12.188;2024-01-07T11:05:20;5.65;;;3.25;;
34828;SDS011;21042;47.620;12.188;2024-01-07T11:07:55;6.63;;;3.03;;
34828;SDS011;21042;47.620;12.188;2024-01-07T11:10:44;6.03;;;3.45;;
34828;SDS011;21042;47.620;12.188;2024-01-07T11:13:31;6.75;;;3.60;;
34828;SDS011;21042;47.620;12.188;2024-01-07T11:16:02;6.53;;;3.42;;
34828;SDS011;21042;47.620;12.188;2024-01-07T11:18:30;5.00;;;3.45;;
34828;SDS011;21042;47.620;12.188;2024-01-07T11:21:00;5.97;;;3.63;;
34828;SDS011;21042;47.620;12.188;2024-01-07T11:25:56;7.55;;;3.53;;
34828;SDS011;21042;47.620;12.188;2024-01-07T11:31:13;5.18;;;2.78;;
34828;SDS011;21042;47.620;12.188;2024-01-07T11:33:42;5.00;;;3.00;;
34828;SDS011;21042;47.620;12.188;2024-01-07T11:36:13;6.07;;;3.65;;
34828;SDS011;21042;47.620;12.188;2024-01-07T11:38:42;5.03;;;3.17;;
34828;SDS011;21042;47.620;12.188;2024-01-07T11:41:20;6.32;;;3.42;;
34828;SDS011;21042;47.620;12.188;2024-01-07T11:46:21;5.40;;;2.47;;
34828;SDS011;21042;47.620;12.188;2024-01-07T11:48:50;6.20;;;2.78;;
34828;SDS011;21042;47.620;12.188;2024-01-07T11:51:19;4.95;;;2.97;;
34828;SDS011;21042;47.620;12.188;2024-01-07T11:53:46;3.65;;;2.30;;
34828;SDS011;21042;47.620;12.188;2024-01-07T11:56:14;5.93;;;2.40;;
34828;SDS011;21042;47.620;12.188;2024-01-07T11:58:41;6.93;;;2.22;;
34828;SDS011;21042;47.620;12.188;2024-01-07T12:03:35;4.63;;;2.60;;
34828;SDS011;21042;47.620;12.188;2024-01-07T12:06:03;8.20;;;2.83;;
34828;SDS011;21042;47.620;12.188;2024-01-07T12:08:31;5.50;;;3.22;;
34828;SDS011;21042;47.620;12.188;2024-01-07T12:10:59;7.35;;;3.95;;
34828;SDS011;21042;47.620;12.188;2024-01-07T12:13:26;8.18;;;4.03;;
34828;SDS011;21042;47.620;12.188;2024-01-07T12:15:53;7.88;;;4.95;;
34828;SDS011;21042;47.620;12.188;2024-01-07T12:18:20;9.15;;;4.68;;
34828;SDS011;21042;47.620;12.188;2024-01-07T12:23:21;8.10;;;4.15;;
34828;SDS011;21042;47.620;12.188;2024-01-07T12:25:53;7.60;;;3.47;;
34828;SDS011;21042;47.620;12.188;2024-01-07T12:28:22;5.10;;;3.42;;
34828;SDS011;21042;47.620;12.188;2024-01-07T12:30:49;5.15;;;3.28;;
34828;SDS011;21042;47.620;12.188;2024-01-07T12:33:19;5.22;;;3.10;;
34828;SDS011;21042;47.620;12.188;2024-01-07T12:35:46;5.47;;;2.95;;
34828;SDS011;21042;47.620;12.188;2024-01-07T12:40:41;7.80;;;3.50;;
34828;SDS011;21042;47.620;12.188;2024-01-07T12:43:08;5.97;;;3.50;;
34828;SDS011;21042;47.620;12.188;2024-01-07T12:45:35;8.20;;;3.65;;
34828;SDS011;21042;47.620;12.188;2024-01-07T12:48:02;10.60;;;3.55;;
34828;SDS011;21042;47.620;12.188;2024-01-07T12:50:29;6.05;;;3.80;;
34828;SDS011;21042;47.620;12.188;2024-01-07T12:52:58;6.28;;;3.63;;
34828;SDS011;21042;47.620;12.188;2024-01-07T12:55:26;7.38;;;4.68;;
34828;SDS011;21042;47.620;12.188;2024-01-07T12:57:53;6.88;;;4.43;;
34828;SDS011;21042;47.620;12.188;2024-01-07T13:00:21;6.38;;;3.85;;
34828;SDS011;21042;47.620;12.188;2024-01-07T13:02:48;9.75;;;5.35;;
34828;SDS011;21042;47.620;12.188;2024-01-07T13:05:15;11.63;;;4.70;;
34828;SDS011;21042;47.620;12.188;2024-01-07T13:07:43;8.82;;;5.10;;
34828;SDS011;21042;47.620;12.188;2024-01-07T13:10:09;7.03;;;4.10;;
34828;SDS011;21042;47.620;12.188;2024-01-07T13:12:36;11.45;;;5.35;;
34828;SDS011;21042;47.620;12.188;2024-01-07T13:15:13;8.80;;;4.53;;
34828;SDS011;21042;47.620;12.188;2024-01-07T13:17:43;17.65;;;5.90;;
34828;SDS011;21042;47.620;12.188;2024-01-07T13:20:10;10.02;;;5.38;;
34828;SDS011;21042;47.620;12.188;2024-01-07T13:22:38;8.27;;;5.20;;
34828;SDS011;21042;47.620;12.188;2024-01-07T13:25:05;8.60;;;4.22;;
34828;SDS011;21042;47.620;12.188;2024-01-07T13:27:33;10.13;;;4.85;;
34828;SDS011;21042;47.620;12.188;2024-01-07T13:30:03;8.02;;;4.50;;
34828;SDS011;21042;47.620;12.188;2024-01-07T13:32:33;6.45;;;4.05;;
34828;SDS011;21042;47.620;12.188;2024-01-07T13:35:04;6.68;;;4.15;;
34828;SDS011;21042;47.620;12.188;2024-01-07T13:37:32;4.93;;;3.35;;
34828;SDS011;21042;47.620;12.188;2024-01-07T13:39:59;5.82;;;3.72;;
34828;SDS011;21042;47.620;12.188;2024-01-07T13:42:27;7.28;;;3.75;;
34828;SDS011;21042;47.620;12.188;2024-01-07T13:44:54;7.78;;;4.22;;
34828;SDS011;21042;47.620;12.188;2024-01-07T13:47:21;5.82;;;3.13;;
34828;SDS011;21042;47.620;12.188;2024-01-07T13:49:47;10.32;;;4.15;;
34828;SDS011;21042;47.620;12.188;2024-01-07T13:52:14;9.20;;;5.32;;
34828;SDS011;21042;47.620;12.188;2024-01-07T13:57:09;7.95;;;4.32;;
34828;SDS011;21042;47.620;12.188;2024-01-07T13:59:35;7.88;;;5.15;;
34828;SDS011;21042;47.620;12.188;2024-01-07T14:02:02;10.25;;;5.30;;
34828;SDS011;21042;47.620;12.188;2024-01-07T14:04:31;13.48;;;6.25;;
34828;SDS011;21042;47.620;12.188;2024-01-07T14:06:58;11.52;;;6.45;;
34828;SDS011;21042;47.620;12.188;2024-01-07T14:09:25;12.18;;;5.82;;
34828;SDS011;21042;47.620;12.188;2024-01-07T14:11:52;11.40;;;6.20;;
34828;SDS011;21042;47.620;12.188;2024-01-07T14:14:19;9.32;;;4.97;;
34828;SDS011;21042;47.620;12.188;2024-01-07T14:16:46;10.50;;;5.05;;
34828;SDS011;21042;47.620;12.188;2024-01-07T14:19:13;6.97;;;3.83;;
34828;SDS011;21042;47.620;12.188;2024-01-07T14:21:43;6.97;;;4.65;;
34828;SDS011;21042;47.620;12.188;2024-01-07T14:24:10;7.57;;;4.75;;
34828;SDS011;21042;47.620;12.188;2024-01-07T14:26:37;9.70;;;5.07;;
34828;SDS011;21042;47.620;12.188;2024-01-07T14:29:04;7.47;;;4.28;;
34828;SDS011;21042;47.620;12.188;2024-01-07T14:31:43;7.63;;;3.70;;
34828;SDS011;21042;47.620;12.188;2024-01-07T14:34:11;6.82;;;3.88;;
34828;SDS011;21042;47.620;12.188;2024-01-07T14:36:41;8.07;;;3.88;;
34828;SDS011;21042;47.620;12.188;2024-01-07T14:39:11;7.85;;;3.80;;
34828;SDS011;21042;47.620;12.188;2024-01-07T14:41:40;6.03;;;3.42;;
34828;SDS011;21042;47.620;12.188;2024-01-07T14:44:07;8.45;;;3.83;;
34828;SDS011;21042;47.620;12.188;2024-01-07T14:46:38;6.60;;;3.90;;
34828;SDS011;21042;47.620;12.188;2024-01-07T14:49:05;7.80;;;3.92;;
34828;SDS011;21042;47.620;12.188;2024-01-07T14:51:33;6.55;;;3.95;;
34828;SDS011;21042;47.620;12.188;2024-01-07T14:54:01;10.65;;;4.88;;
34828;SDS011;21042;47.620;12.188;2024-01-07T14:56:27;10.15;;;4.75;;
34828;SDS011;21042;47.620;12.188;2024-01-07T14:58:54;7.00;;;3.85;;
34828;SDS011;21042;47.620;12.188;2024-01-07T15:01:21;8.60;;;4.85;;
34828;SDS011;21042;47.620;12.188;2024-01-07T15:03:49;9.70;;;5.35;;
34828;SDS011;21042;47.620;12.188;2024-01-07T15:06:16;9.35;;;4.90;;
34828;SDS011;21042;47.620;12.188;2024-01-07T15:08:43;10.60;;;5.63;;
34828;SDS011;21042;47.620;12.188;2024-01-07T15:11:09;9.63;;;5.53;;
34828;SDS011;21042;47.620;12.188;2024-01-07T15:13:36;10.90;;;5.72;;
34828;SDS011;21042;47.620;12.188;2024-01-07T15:16:06;10.68;;;6.40;;
34828;SDS011;21042;47.620;12.188;2024-01-07T15:18:33;12.07;;;5.95;;